sensor_id;sensor_type;location;lat;lon;timestamp;pressure;altitude;pressure_sealevel;temperature;humidity
25232;BME280;13176;51.140;6.290;2023-03-14T00:01:47;98327.22;;;12.91;86.55
25232;BME280;13176;51.140;6.290;2023-03-14T00:04:16;98457.38;;;13.31;90.14
25232;BME280;13176;51.140;6.290;2023-03-14T00:06:45;98364.69;;;12.48;90.33
25232;BME280;13176;51.140;6.290;2023-03-14T00:09:13;98406.59;;;12.33;92.67
25232;BME280;13176;51.140;6.290;2023-03-14T00:11:40;98435.28;;;12.35;97.63
25232;BME280;13176;51.140;6.290;2023-03-14T00:14:07;98428.44;;;12.61;96.70
25232;BME280;13176;51.140;6.290;2023-03-14T00:16:33;98362.94;;;12.20;97.08
25232;BME280;13176;51.140;6.290;2023-03-14T00:19:00;98473.78;;;12.91;99.05
25232;BME280;13176;51.140;6.290;2023-03-14T00:21:27;98408.53;;;12.59;98.45
25232;BME280;13176;51.140;6.290;2023-03-14T00:23:53;98349.19;;;12.46;97.02
25232;BME280;13176;51.140;6.290;2023-03-14T00:26:21;98382.19;;;12.48;97.68
25232;BME280;13176;51.140;6.290;2023-03-14T00:28:51;98391.38;;;12.40;96.31
25232;BME280;13176;51.140;6.290;2023-03-14T00:31:18;98351.69;;;12.04;96.82
25232;BME280;13176;51.140;6.290;2023-03-14T00:33:45;98443.63;;;12.70;96.54
25232;BME280;13176;51.140;6.290;2023-03-14T00:36:14;98422.81;;;12.53;95.95
25232;BME280;13176;51.140;6.290;2023-03-14T00:38:42;98427.91;;;12.70;95.25
25232;BME280;13176;51.140;6.290;2023-03-14T00:41:11;98459.59;;;12.95;93.41
25232;BME280;13176;51.140;6.290;2023-03-14T00:43:38;98440.31;;;12.96;92.64
25232;BME280;13176;51.140;6.290;2023-03-14T00:46:05;98350.72;;;12.63;91.15
25232;BME280;13176;51.140;6.290;2023-03-14T00:48:32;98477.84;;;13.53;89.90
25232;BME280;13176;51.140;6.290;2023-03-14T00:50:58;98367.91;;;12.81;89.76
25232;BME280;13176;51.140;6.290;2023-03-14T00:53:25;98354.00;;;12.67;89.80
25232;BME280;13176;51.140;6.290;2023-03-14T00:55:51;98398.97;;;12.73;89.95
25232;BME280;13176;51.140;6.290;2023-03-14T00:58:18;98387.34;;;12.34;91.05
25232;BME280;13176;51.140;6.290;2023-03-14T01:00:45;98475.97;;;13.13;91.25
25232;BME280;13176;51.140;6.290;2023-03-14T01:03:13;98435.31;;;12.78;90.08
25232;BME280;13176;51.140;6.290;2023-03-14T01:05:41;98380.50;;;12.61;90.58
25232;BME280;13176;51.140;6.290;2023-03-14T01:08:07;98412.06;;;12.58;91.75
25232;BME280;13176;51.140;6.290;2023-03-14T01:10:34;98357.19;;;12.29;92.07
25232;BME280;13176;51.140;6.290;2023-03-14T01:13:03;98348.81;;;12.51;91.29
25232;BME280;13176;51.140;6.290;2023-03-14T01:15:32;98399.91;;;12.43;92.22
25232;BME280;13176;51.140;6.290;2023-03-14T01:17:58;98408.09;;;12.80;92.14
25232;BME280;13176;51.140;6.290;2023-03-14T01:20:25;98454.09;;;12.84;91.96
25232;BME280;13176;51.140;6.290;2023-03-14T01:22:51;98344.53;;;12.37;91.99
25232;BME280;13176;51.140;6.290;2023-03-14T01:25:18;98363.75;;;12.36;91.41
25232;BME280;13176;51.140;6.290;2023-03-14T01:27:45;98442.94;;;12.67;91.90
25232;BME280;13176;51.140;6.290;2023-03-14T01:30:12;98421.66;;;12.73;92.58
25232;BME280;13176;51.140;6.290;2023-03-14T01:32:39;98443.44;;;12.87;93.25
25232;BME280;13176;51.140;6.290;2023-03-14T01:35:06;98405.59;;;12.79;92.83
25232;BME280;13176;51.140;6.290;2023-03-14T01:37:33;98338.78;;;12.73;90.61
25232;BME280;13176;51.140;6.290;2023-03-14T01:39:59;98417.06;;;13.20;91.04
25232;BME280;13176;51.140;6.290;2023-03-14T01:42:26;98429.22;;;13.21;91.54
25232;BME280;13176;51.140;6.290;2023-03-14T01:44:58;98433.59;;;13.20;91.92
25232;BME280;13176;51.140;6.290;2023-03-14T01:47:25;98427.84;;;12.86;92.32
25232;BME280;13176;51.140;6.290;2023-03-14T01:50:06;98413.97;;;12.99;92.23
25232;BME280;13176;51.140;6.290;2023-03-14T01:52:37;98407.06;;;12.69;92.97
25232;BME280;13176;51.140;6.290;2023-03-14T01:55:14;98208.31;;;11.84;91.17
25232;BME280;13176;51.140;6.290;2023-03-14T01:57:51;98406.84;;;13.29;90.11
25232;BME280;13176;51.140;6.290;2023-03-14T02:00:22;98401.06;;;13.24;89.71
25232;BME280;13176;51.140;6.290;2023-03-14T02:03:01;98322.63;;;12.95;88.73
25232;BME280;13176;51.140;6.290;2023-03-14T02:05:34;98332.78;;;12.85;89.23
25232;BME280;13176;51.140;6.290;2023-03-14T02:08:04;98315.22;;;12.87;89.54
25232;BME280;13176;51.140;6.290;2023-03-14T02:10:35;98327.03;;;12.94;90.06
25232;BME280;13176;51.140;6.290;2023-03-14T02:13:04;98398.84;;;13.04;91.69
25232;BME280;13176;51.140;6.290;2023-03-14T02:15:31;98325.09;;;12.54;91.27
25232;BME280;13176;51.140;6.290;2023-03-14T02:17:59;98298.38;;;12.49;90.35
25232;BME280;13176;51.140;6.290;2023-03-14T02:23:15;98345.72;;;13.02;88.79
25232;BME280;13176;51.140;6.290;2023-03-14T02:25:48;98411.81;;;13.48;87.67
25232;BME280;13176;51.140;6.290;2023-03-14T02:28:17;98210.78;;;12.29;87.38
25232;BME280;13176;51.140;6.290;2023-03-14T02:30:44;98407.59;;;13.17;88.61
25232;BME280;13176;51.140;6.290;2023-03-14T02:33:13;98419.56;;;13.49;87.40
25232;BME280;13176;51.140;6.290;2023-03-14T02:35:44;98401.44;;;13.32;87.57
25232;BME280;13176;51.140;6.290;2023-03-14T02:38:20;98334.31;;;13.03;87.24
25232;BME280;13176;51.140;6.290;2023-03-14T02:40:49;98394.69;;;13.28;87.24
25232;BME280;13176;51.140;6.290;2023-03-14T02:43:16;98195.66;;;12.20;86.89
25232;BME280;13176;51.140;6.290;2023-03-14T02:45:45;98399.38;;;13.23;87.76
25232;BME280;13176;51.140;6.290;2023-03-14T02:48:24;98389.47;;;13.28;87.70
25232;BME280;13176;51.140;6.290;2023-03-14T02:50:55;98228.72;;;12.48;87.58
25232;BME280;13176;51.140;6.290;2023-03-14T02:53:27;98313.19;;;12.92;87.13
25232;BME280;13176;51.140;6.290;2023-03-14T02:55:55;98373.50;;;13.19;86.64
25232;BME280;13176;51.140;6.290;2023-03-14T02:58:21;98376.94;;;13.33;86.49
25232;BME280;13176;51.140;6.290;2023-03-14T03:00:48;98343.47;;;13.10;87.43
25232;BME280;13176;51.140;6.290;2023-03-14T03:03:15;98358.06;;;13.00;88.65
25232;BME280;13176;51.140;6.290;2023-03-14T03:05:41;98324.56;;;12.77;88.95
25232;BME280;13176;51.140;6.290;2023-03-14T03:08:09;98201.44;;;11.97;90.55
25232;BME280;13176;51.140;6.290;2023-03-14T03:10:35;98354.47;;;12.87;90.50
25232;BME280;13176;51.140;6.290;2023-03-14T03:13:02;98343.69;;;12.64;91.91
25232;BME280;13176;51.140;6.290;2023-03-14T03:15:28;98357.56;;;12.80;91.78
25232;BME280;13176;51.140;6.290;2023-03-14T03:17:55;98377.50;;;12.96;92.57
25232;BME280;13176;51.140;6.290;2023-03-14T03:20:21;98305.84;;;12.42;92.95
25232;BME280;13176;51.140;6.290;2023-03-14T03:22:48;98294.56;;;12.41;92.96
25232;BME280;13176;51.140;6.290;2023-03-14T03:25:16;98247.72;;;11.95;93.90
25232;BME280;13176;51.140;6.290;2023-03-14T03:27:43;98201.56;;;11.80;93.64
25232;BME280;13176;51.140;6.290;2023-03-14T03:30:09;98352.56;;;12.48;95.43
25232;BME280;13176;51.140;6.290;2023-03-14T03:32:36;98287.09;;;12.06;95.47
25232;BME280;13176;51.140;6.290;2023-03-14T03:35:04;98310.13;;;12.29;95.16
25232;BME280;13176;51.140;6.290;2023-03-14T03:37:31;98388.34;;;12.47;96.66
25232;BME280;13176;51.140;6.290;2023-03-14T03:39:58;98293.09;;;11.78;98.79
25232;BME280;13176;51.140;6.290;2023-03-14T03:42:28;98382.59;;;12.41;98.25
25232;BME280;13176;51.140;6.290;2023-03-14T03:44:55;98370.84;;;12.34;98.21
25232;BME280;13176;51.140;6.290;2023-03-14T03:47:21;98370.72;;;12.06;99.71
25232;BME280;13176;51.140;6.290;2023-03-14T03:49:48;98341.78;;;11.95;99.54
25232;BME280;13176;51.140;6.290;2023-03-14T03:52:14;98292.06;;;11.81;99.39
25232;BME280;13176;51.140;6.290;2023-03-14T03:54:41;98246.47;;;11.57;98.43
25232;BME280;13176;51.140;6.290;2023-03-14T03:57:07;98361.84;;;12.24;98.76
25232;BME280;13176;51.140;6.290;2023-03-14T03:59:33;98344.66;;;12.20;98.82
25232;BME280;13176;51.140;6.290;2023-03-14T04:02:00;98383.41;;;12.56;97.29
25232;BME280;13176;51.140;6.290;2023-03-14T04:04:27;98369.38;;;12.14;100.00
25232;BME280;13176;51.140;6.290;2023-03-14T04:06:53;98311.59;;;11.89;99.65
25232;BME280;13176;51.140;6.290;2023-03-14T04:09:20;98281.81;;;11.78;99.34
25232;BME280;13176;51.140;6.290;2023-03-14T04:11:46;98343.91;;;12.18;99.27
25232;BME280;13176;51.140;6.290;2023-03-14T04:14:12;98336.75;;;12.35;98.18
25232;BME280;13176;51.140;6.290;2023-03-14T04:16:39;98378.31;;;12.40;99.70
25232;BME280;13176;51.140;6.290;2023-03-14T04:19:05;98319.25;;;12.22;98.58
25232;BME280;13176;51.140;6.290;2023-03-14T04:21:32;98182.13;;;11.56;98.58
25232;BME280;13176;51.140;6.290;2023-03-14T04:23:58;98312.00;;;12.41;97.97
25232;BME280;13176;51.140;6.290;2023-03-14T04:26:25;98341.38;;;12.59;97.40
25232;BME280;13176;51.140;6.290;2023-03-14T04:28:51;98298.00;;;12.42;97.09
25232;BME280;13176;51.140;6.290;2023-03-14T04:31:20;98327.19;;;12.63;96.91
25232;BME280;13176;51.140;6.290;2023-03-14T04:33:47;98334.53;;;12.57;98.23
25232;BME280;13176;51.140;6.290;2023-03-14T04:36:14;98281.94;;;12.34;98.00
25232;BME280;13176;51.140;6.290;2023-03-14T04:38:40;98293.34;;;12.47;98.05
25232;BME280;13176;51.140;6.290;2023-03-14T04:41:07;98233.16;;;12.05;98.25
25232;BME280;13176;51.140;6.290;2023-03-14T04:43:33;98265.41;;;12.33;98.55
25232;BME280;13176;51.140;6.290;2023-03-14T04:46:00;98328.22;;;12.18;100.00
25232;BME280;13176;51.140;6.290;2023-03-14T04:48:26;98301.75;;;12.38;100.00
25232;BME280;13176;51.140;6.290;2023-03-14T04:50:54;98266.44;;;12.31;99.43
25232;BME280;13176;51.140;6.290;2023-03-14T04:53:21;98258.84;;;12.26;98.48
25232;BME280;13176;51.140;6.290;2023-03-14T04:55:54;98336.69;;;12.78;98.57
25232;BME280;13176;51.140;6.290;2023-03-14T04:58:21;98332.22;;;12.66;99.41
25232;BME280;13176;51.140;6.290;2023-03-14T05:00:48;98244.56;;;12.18;98.75
25232;BME280;13176;51.140;6.290;2023-03-14T05:03:16;98245.34;;;12.34;99.16
25232;BME280;13176;51.140;6.290;2023-03-14T05:05:43;98226.66;;;12.26;98.41
25232;BME280;13176;51.140;6.290;2023-03-14T05:08:10;98312.88;;;12.83;98.04
25232;BME280;13176;51.140;6.290;2023-03-14T05:10:37;98168.19;;;12.13;97.06
25232;BME280;13176;51.140;6.290;2023-03-14T05:13:06;98299.69;;;12.84;97.54
25232;BME280;13176;51.140;6.290;2023-03-14T05:15:32;98224.78;;;12.28;98.43
25232;BME280;13176;51.140;6.290;2023-03-14T05:17:59;98258.59;;;12.58;97.96
25232;BME280;13176;51.140;6.290;2023-03-14T05:20:26;98228.41;;;12.11;100.00
25232;BME280;13176;51.140;6.290;2023-03-14T05:22:52;98214.41;;;12.26;99.05
25232;BME280;13176;51.140;6.290;2023-03-14T05:25:20;98170.22;;;11.80;99.63
25232;BME280;13176;51.140;6.290;2023-03-14T05:27:46;98260.94;;;12.49;100.00
25232;BME280;13176;51.140;6.290;2023-03-14T05:30:15;98287.38;;;12.58;100.00
25232;BME280;13176;51.140;6.290;2023-03-14T05:32:45;98253.94;;;12.49;99.47
25232;BME280;13176;51.140;6.290;2023-03-14T05:35:11;98168.75;;;12.04;99.42
25232;BME280;13176;51.140;6.290;2023-03-14T05:37:38;98209.28;;;11.97;100.00
25232;BME280;13176;51.140;6.290;2023-03-14T05:40:06;98233.19;;;12.19;100.00
25232;BME280;13176;51.140;6.290;2023-03-14T05:42:33;98276.91;;;12.31;100.00
25232;BME280;13176;51.140;6.290;2023-03-14T05:44:59;98213.38;;;12.01;100.00
25232;BME280;13176;51.140;6.290;2023-03-14T05:47:34;98191.88;;;11.82;100.00
25232;BME280;13176;51.140;6.290;2023-03-14T05:54:20;98279.41;;;12.60;100.00
25232;BME280;13176;51.140;6.290;2023-03-14T05:56:48;98168.66;;;11.91;100.00
25232;BME280;13176;51.140;6.290;2023-03-14T05:59:14;98219.72;;;12.39;98.36
25232;BME280;13176;51.140;6.290;2023-03-14T06:01:41;98237.13;;;12.53;98.09
25232;BME280;13176;51.140;6.290;2023-03-14T06:04:07;98230.66;;;12.59;97.91
25232;BME280;13176;51.140;6.290;2023-03-14T06:06:38;98228.16;;;12.57;98.40
25232;BME280;13176;51.140;6.290;2023-03-14T06:09:04;98252.50;;;12.58;99.34
25232;BME280;13176;51.140;6.290;2023-03-14T06:11:31;98260.66;;;12.67;98.20
25232;BME280;13176;51.140;6.290;2023-03-14T06:13:57;98236.56;;;12.48;98.69
25232;BME280;13176;51.140;6.290;2023-03-14T06:16:23;98272.50;;;12.59;98.41
25232;BME280;13176;51.140;6.290;2023-03-14T06:18:50;98248.50;;;12.52;98.15
25232;BME280;13176;51.140;6.290;2023-03-14T06:21:18;98283.81;;;12.87;97.94
25232;BME280;13176;51.140;6.290;2023-03-14T06:23:45;98279.53;;;12.72;97.87
25232;BME280;13176;51.140;6.290;2023-03-14T06:26:12;98259.69;;;12.82;97.58
25232;BME280;13176;51.140;6.290;2023-03-14T06:28:39;98215.63;;;12.62;97.21
25232;BME280;13176;51.140;6.290;2023-03-14T06:31:11;98177.56;;;12.31;97.32
25232;BME280;13176;51.140;6.290;2023-03-14T06:33:37;98197.81;;;12.13;98.14
25232;BME280;13176;51.140;6.290;2023-03-14T06:36:04;98276.00;;;12.73;98.09
25232;BME280;13176;51.140;6.290;2023-03-14T06:38:31;98223.47;;;12.21;99.52
25232;BME280;13176;51.140;6.290;2023-03-14T06:41:05;98232.44;;;12.45;98.41
25232;BME280;13176;51.140;6.290;2023-03-14T06:43:32;98272.03;;;12.80;98.01
25232;BME280;13176;51.140;6.290;2023-03-14T06:45:58;98196.19;;;12.39;98.57
25232;BME280;13176;51.140;6.290;2023-03-14T06:48:25;98270.34;;;12.79;99.14
25232;BME280;13176;51.140;6.290;2023-03-14T06:50:51;98275.63;;;12.93;98.61
25232;BME280;13176;51.140;6.290;2023-03-14T06:53:18;98218.34;;;12.47;99.58
25232;BME280;13176;51.140;6.290;2023-03-14T06:55:44;98234.13;;;12.18;100.00
25232;BME280;13176;51.140;6.290;2023-03-14T06:58:12;98224.59;;;12.58;99.77
25232;BME280;13176;51.140;6.290;2023-03-14T07:00:41;98274.56;;;12.82;99.95
25232;BME280;13176;51.140;6.290;2023-03-14T07:03:08;98171.53;;;12.43;98.18
25232;BME280;13176;51.140;6.290;2023-03-14T07:05:38;98283.63;;;12.76;100.00
25232;BME280;13176;51.140;6.290;2023-03-14T07:08:08;98288.13;;;12.74;100.00
25232;BME280;13176;51.140;6.290;2023-03-14T07:10:37;98269.41;;;12.80;100.00
25232;BME280;13176;51.140;6.290;2023-03-14T07:13:03;98213.88;;;12.49;99.47
25232;BME280;13176;51.140;6.290;2023-03-14T07:15:30;98266.09;;;12.92;99.02
25232;BME280;13176;51.140;6.290;2023-03-14T07:17:57;98273.75;;;12.95;99.55
25232;BME280;13176;51.140;6.290;2023-03-14T07:20:23;98266.53;;;12.99;98.27
25232;BME280;13176;51.140;6.290;2023-03-14T07:22:50;98293.56;;;12.99;99.50
25232;BME280;13176;51.140;6.290;2023-03-14T07:25:17;98226.00;;;12.64;98.79
25232;BME280;13176;51.140;6.290;2023-03-14T07:27:44;98266.09;;;12.92;98.55
25232;BME280;13176;51.140;6.290;2023-03-14T07:30:11;98235.06;;;12.58;99.25
25232;BME280;13176;51.140;6.290;2023-03-14T07:32:38;98259.91;;;12.65;99.34
25232;BME280;13176;51.140;6.290;2023-03-14T07:35:05;98245.59;;;12.71;98.72
25232;BME280;13176;51.140;6.290;2023-03-14T07:37:32;98301.38;;;13.13;98.44
25232;BME280;13176;51.140;6.290;2023-03-14T07:39:58;98322.91;;;13.04;98.99
25232;BME280;13176;51.140;6.290;2023-03-14T07:42:25;98201.25;;;12.55;97.52
25232;BME280;13176;51.140;6.290;2023-03-14T07:44:51;98306.34;;;13.04;98.82
25232;BME280;13176;51.140;6.290;2023-03-14T07:47:18;98266.66;;;12.97;97.61
25232;BME280;13176;51.140;6.290;2023-03-14T07:49:45;98217.13;;;12.52;97.74
25232;BME280;13176;51.140;6.290;2023-03-14T07:52:11;98291.66;;;13.15;97.50
25232;BME280;13176;51.140;6.290;2023-03-14T07:54:48;98252.25;;;12.90;97.17
25232;BME280;13176;51.140;6.290;2023-03-14T07:57:14;98255.88;;;12.88;96.79
25232;BME280;13176;51.140;6.290;2023-03-14T07:59:41;98313.31;;;13.45;95.54
25232;BME280;13176;51.140;6.290;2023-03-14T08:02:10;98300.88;;;13.35;95.86
25232;BME280;13176;51.140;6.290;2023-03-14T08:04:39;98211.53;;;12.72;95.79
25232;BME280;13176;51.140;6.290;2023-03-14T08:07:06;98320.69;;;13.39;96.15
25232;BME280;13176;51.140;6.290;2023-03-14T08:09:33;98302.69;;;13.20;97.91
25232;BME280;13176;51.140;6.290;2023-03-14T08:11:59;98253.44;;;12.57;99.42
25232;BME280;13176;51.140;6.290;2023-03-14T08:14:28;98344.19;;;13.26;99.09
25232;BME280;13176;51.140;6.290;2023-03-14T08:16:56;98218.78;;;12.40;100.00
25232;BME280;13176;51.140;6.290;2023-03-14T08:19:22;98341.78;;;12.95;100.00
25232;BME280;13176;51.140;6.290;2023-03-14T08:21:51;98354.59;;;13.00;100.00
25232;BME280;13176;51.140;6.290;2023-03-14T08:24:18;98326.22;;;12.78;100.00
25232;BME280;13176;51.140;6.290;2023-03-14T08:26:44;98305.78;;;12.85;100.00
25232;BME280;13176;51.140;6.290;2023-03-14T08:29:11;98363.13;;;13.03;100.00
25232;BME280;13176;51.140;6.290;2023-03-14T08:31:39;98340.25;;;12.77;100.00
25232;BME280;13176;51.140;6.290;2023-03-14T08:34:05;98323.81;;;12.61;100.00
25232;BME280;13176;51.140;6.290;2023-03-14T08:36:33;98349.03;;;12.76;100.00
25232;BME280;13176;51.140;6.290;2023-03-14T08:39:00;98365.81;;;13.02;100.00
25232;BME280;13176;51.140;6.290;2023-03-14T08:41:26;98308.22;;;12.74;100.00
25232;BME280;13176;51.140;6.290;2023-03-14T08:43:53;98370.19;;;12.73;100.00
25232;BME280;13176;51.140;6.290;2023-03-14T08:46:19;98397.50;;;12.97;100.00
25232;BME280;13176;51.140;6.290;2023-03-14T08:48:46;98406.91;;;12.43;100.00
25232;BME280;13176;51.140;6.290;2023-03-14T08:51:13;98393.84;;;11.36;100.00
25232;BME280;13176;51.140;6.290;2023-03-14T08:53:41;98470.97;;;12.05;100.00
25232;BME280;13176;51.140;6.290;2023-03-14T08:56:08;98492.97;;;11.70;99.11
25232;BME280;13176;51.140;6.290;2023-03-14T08:58:37;98491.09;;;11.07;98.16
25232;BME280;13176;51.140;6.290;2023-03-14T09:01:08;98429.00;;;10.64;97.75
25232;BME280;13176;51.140;6.290;2023-03-14T09:03:38;98536.84;;;10.97;98.34
25232;BME280;13176;51.140;6.290;2023-03-14T09:06:07;98496.94;;;10.95;99.30
25232;BME280;13176;51.140;6.290;2023-03-14T09:08:34;98521.94;;;10.99;99.34
25232;BME280;13176;51.140;6.290;2023-03-14T09:11:07;98510.75;;;10.63;100.00
25232;BME280;13176;51.140;6.290;2023-03-14T09:13:34;98462.91;;;10.47;100.00
25232;BME280;13176;51.140;6.290;2023-03-14T09:16:01;98497.81;;;10.26;100.00
25232;BME280;13176;51.140;6.290;2023-03-14T09:18:28;98572.63;;;10.60;100.00
25232;BME280;13176;51.140;6.290;2023-03-14T09:20:55;98593.00;;;11.04;100.00
25232;BME280;13176;51.140;6.290;2023-03-14T09:23:22;98533.28;;;10.47;100.00
25232;BME280;13176;51.140;6.290;2023-03-14T09:25:48;98556.22;;;10.58;100.00
25232;BME280;13176;51.140;6.290;2023-03-14T09:28:18;98623.69;;;10.99;100.00
25232;BME280;13176;51.140;6.290;2023-03-14T09:30:44;98563.78;;;10.45;100.00
25232;BME280;13176;51.140;6.290;2023-03-14T09:33:11;98563.75;;;10.64;100.00
25232;BME280;13176;51.140;6.290;2023-03-14T09:35:37;98619.53;;;10.78;100.00
25232;BME280;13176;51.140;6.290;2023-03-14T09:38:03;98625.06;;;10.54;100.00
25232;BME280;13176;51.140;6.290;2023-03-14T09:40:34;98583.25;;;10.38;100.00
25232;BME280;13176;51.140;6.290;2023-03-14T09:43:02;98647.44;;;10.76;100.00
25232;BME280;13176;51.140;6.290;2023-03-14T09:45:35;98708.06;;;10.44;100.00
25232;BME280;13176;51.140;6.290;2023-03-14T09:48:03;98708.34;;;10.38;100.00
25232;BME280;13176;51.140;6.290;2023-03-14T09:50:39;98715.78;;;10.27;100.00
25232;BME280;13176;51.140;6.290;2023-03-14T09:53:13;98714.31;;;10.22;100.00
25232;BME280;13176;51.140;6.290;2023-03-14T09:55:42;98744.69;;;10.23;100.00
25232;BME280;13176;51.140;6.290;2023-03-14T09:58:12;98676.69;;;9.89;100.00
25232;BME280;13176;51.140;6.290;2023-03-14T10:00:38;98688.50;;;9.78;100.00
25232;BME280;13176;51.140;6.290;2023-03-14T10:05:41;98640.44;;;10.05;99.19
25232;BME280;13176;51.140;6.290;2023-03-14T10:08:13;98743.31;;;10.71;100.00
25232;BME280;13176;51.140;6.290;2023-03-14T10:10:40;98780.50;;;10.56;100.00
25232;BME280;13176;51.140;6.290;2023-03-14T10:13:18;98778.25;;;10.49;100.00
25232;BME280;13176;51.140;6.290;2023-03-14T10:15:53;98800.09;;;10.46;100.00
25232;BME280;13176;51.140;6.290;2023-03-14T10:18:22;98829.94;;;10.39;100.00
25232;BME280;13176;51.140;6.290;2023-03-14T10:20:49;98777.28;;;10.51;98.96
25232;BME280;13176;51.140;6.290;2023-03-14T10:25:44;98805.41;;;10.63;100.00
25232;BME280;13176;51.140;6.290;2023-03-14T10:28:26;98832.09;;;10.88;100.00
25232;BME280;13176;51.140;6.290;2023-03-14T10:30:56;98832.69;;;10.75;99.94
25232;BME280;13176;51.140;6.290;2023-03-14T10:33:27;98866.03;;;11.07;99.91
25232;BME280;13176;51.140;6.290;2023-03-14T10:38:49;98833.69;;;10.72;98.88
25232;BME280;13176;51.140;6.290;2023-03-14T10:41:24;98870.66;;;11.37;97.95
25232;BME280;13176;51.140;6.290;2023-03-14T10:43:57;98878.16;;;11.26;97.92
25232;BME280;13176;51.140;6.290;2023-03-14T10:46:28;98839.94;;;11.07;97.19
25232;BME280;13176;51.140;6.290;2023-03-14T10:48:56;98893.97;;;11.23;96.53
25232;BME280;13176;51.140;6.290;2023-03-14T10:51:28;98909.00;;;11.18;97.63
25232;BME280;13176;51.140;6.290;2023-03-14T10:54:14;98933.97;;;10.85;97.59
25232;BME280;13176;51.140;6.290;2023-03-14T10:56:44;98927.59;;;10.11;97.97
25232;BME280;13176;51.140;6.290;2023-03-14T10:59:14;98999.34;;;10.20;93.49
25232;BME280;13176;51.140;6.290;2023-03-14T11:02:03;98967.19;;;9.98;94.31
25232;BME280;13176;51.140;6.290;2023-03-14T11:04:57;98993.84;;;9.83;95.91
25232;BME280;13176;51.140;6.290;2023-03-14T11:07:44;98954.50;;;9.67;96.21
25232;BME280;13176;51.140;6.290;2023-03-14T11:10:19;98960.31;;;9.52;97.31
25232;BME280;13176;51.140;6.290;2023-03-14T11:12:57;99043.31;;;10.06;96.53
25232;BME280;13176;51.140;6.290;2023-03-14T11:15:40;98938.91;;;9.44;96.81
25232;BME280;13176;51.140;6.290;2023-03-14T11:18:41;99009.09;;;9.92;96.38
25232;BME280;13176;51.140;6.290;2023-03-14T11:21:35;98933.97;;;9.60;94.78
25232;BME280;13176;51.140;6.290;2023-03-14T11:27:07;99018.88;;;9.64;96.59
25232;BME280;13176;51.140;6.290;2023-03-14T11:32:17;99084.66;;;10.79;93.00
25232;BME280;13176;51.140;6.290;2023-03-14T11:34:54;99078.13;;;10.47;91.48
25232;BME280;13176;51.140;6.290;2023-03-14T11:37:41;99108.06;;;11.63;87.46
25232;BME280;13176;51.140;6.290;2023-03-14T11:40:21;99037.41;;;11.06;85.70
25232;BME280;13176;51.140;6.290;2023-03-14T11:42:54;99058.34;;;11.05;87.27
25232;BME280;13176;51.140;6.290;2023-03-14T11:45:39;99094.56;;;11.12;86.83
25232;BME280;13176;51.140;6.290;2023-03-14T11:50:46;99152.09;;;10.45;85.88
25232;BME280;13176;51.140;6.290;2023-03-14T11:53:34;99134.97;;;10.17;84.46
25232;BME280;13176;51.140;6.290;2023-03-14T11:56:02;99140.72;;;10.24;85.47
25232;BME280;13176;51.140;6.290;2023-03-14T11:58:34;99183.69;;;10.37;85.37
25232;BME280;13176;51.140;6.290;2023-03-14T12:01:09;99183.81;;;10.12;85.98
25232;BME280;13176;51.140;6.290;2023-03-14T12:03:44;99115.69;;;10.20;86.18
25232;BME280;13176;51.140;6.290;2023-03-14T12:06:21;99206.69;;;11.35;82.86
25232;BME280;13176;51.140;6.290;2023-03-14T12:09:04;99209.25;;;11.36;79.53
25232;BME280;13176;51.140;6.290;2023-03-14T12:14:29;99218.00;;;12.55;74.63
25232;BME280;13176;51.140;6.290;2023-03-14T12:17:17;99226.16;;;12.48;73.68
25232;BME280;13176;51.140;6.290;2023-03-14T12:19:45;99182.50;;;11.51;73.33
25232;BME280;13176;51.140;6.290;2023-03-14T12:22:23;99233.91;;;11.51;76.47
25232;BME280;13176;51.140;6.290;2023-03-14T12:24:55;99270.47;;;11.51;76.00
25232;BME280;13176;51.140;6.290;2023-03-14T12:35:47;99281.25;;;13.20;68.21
25232;BME280;13176;51.140;6.290;2023-03-14T12:41:11;99233.00;;;14.27;65.15
25232;BME280;13176;51.140;6.290;2023-03-14T12:43:40;99252.44;;;14.87;63.47
25232;BME280;13176;51.140;6.290;2023-03-14T12:46:18;99297.28;;;14.35;60.77
25232;BME280;13176;51.140;6.290;2023-03-14T12:51:40;99299.50;;;13.03;65.66
25232;BME280;13176;51.140;6.290;2023-03-14T12:57:13;99291.59;;;9.83;81.33
25232;BME280;13176;51.140;6.290;2023-03-14T12:59:56;99292.25;;;9.38;85.25
25232;BME280;13176;51.140;6.290;2023-03-14T13:02:38;99366.31;;;9.54;86.84
25232;BME280;13176;51.140;6.290;2023-03-14T13:05:12;99326.56;;;9.49;87.90
25232;BME280;13176;51.140;6.290;2023-03-14T13:10:24;99283.03;;;9.54;85.12
25232;BME280;13176;51.140;6.290;2023-03-14T13:13:03;99375.47;;;9.67;84.09
25232;BME280;13176;51.140;6.290;2023-03-14T13:15:42;99373.53;;;9.99;85.93
25232;BME280;13176;51.140;6.290;2023-03-14T13:18:13;99329.50;;;9.66;84.93
25232;BME280;13176;51.140;6.290;2023-03-14T13:20:51;99425.22;;;10.13;86.04
25232;BME280;13176;51.140;6.290;2023-03-14T13:23:23;99428.38;;;9.95;84.89
25232;BME280;13176;51.140;6.290;2023-03-14T13:25:50;99390.28;;;9.65;84.35
25232;BME280;13176;51.140;6.290;2023-03-14T13:28:20;99449.75;;;10.33;83.40
25232;BME280;13176;51.140;6.290;2023-03-14T13:30:49;99289.56;;;9.39;82.69
25232;BME280;13176;51.140;6.290;2023-03-14T13:33:21;99454.66;;;10.66;82.47
25232;BME280;13176;51.140;6.290;2023-03-14T13:35:55;99386.69;;;9.95;83.22
25232;BME280;13176;51.140;6.290;2023-03-14T13:38:27;99461.81;;;10.10;83.44
25232;BME280;13176;51.140;6.290;2023-03-14T13:40:55;99444.28;;;9.86;82.66
25232;BME280;13176;51.140;6.290;2023-03-14T13:43:31;99459.03;;;9.87;80.36
25232;BME280;13176;51.140;6.290;2023-03-14T13:46:05;99480.66;;;10.18;80.74
25232;BME280;13176;51.140;6.290;2023-03-14T13:48:35;99372.75;;;9.44;79.87
25232;BME280;13176;51.140;6.290;2023-03-14T13:51:06;99327.28;;;9.54;79.33
25232;BME280;13176;51.140;6.290;2023-03-14T13:53:48;99415.56;;;10.16;80.32
25232;BME280;13176;51.140;6.290;2023-03-14T13:56:22;99392.88;;;10.20;78.66
25232;BME280;13176;51.140;6.290;2023-03-14T13:58:50;99491.63;;;11.03;77.29